Time;durP1;ratioP1;P1;durP2;ratioP2;P2;SDS_P1;SDS_P2;PMS_P1;PMS_P2;Temp;Humidity;BMP_temperature;BMP_pressure;BME280_temperature;BME280_humidity;BME280_pressure;Samples;Min_cycle;Max_cycle;Signal;HPM_P1;HPM_P2
2022/06/06 00:03:30;;;;;;;8.20;7.10;;;;;;;18.90;48.72;99096.79;233633;1216;138514;-62
2022/06/06 00:08:40;;;;;;;8.50;6.60;;;;;;;18.82;48.90;99101.52;233822;1217;138885;-63
2022/06/06 00:13:46;;;;;;;9.50;7.50;;;;;;;18.72;49.12;99098.35;233553;1217;140436;-62
2022/06/06 00:18:50;;;;;;;8.30;7.30;;;;;;;18.65;49.20;99099.14;233697;1216;138783;-62
2022/06/06 00:23:54;;;;;;;9.90;6.90;;;;;;;18.59;49.51;99107.14;233500;1217;141369;-63
2022/06/06 00:28:57;;;;;;;8.50;7.10;;;;;;;18.51;49.86;99102.27;233571;1217;138668;-64
2022/06/06 00:39:26;;;;;;;8.70;7.70;;;;;;;18.37;50.22;99096.77;233473;1217;139523;-62
2022/06/06 00:44:33;;;;;;;8.80;7.90;;;;;;;18.33;50.24;99104.19;233531;1217;138726;-65
2022/06/06 00:49:40;;;;;;;8.80;7.90;;;;;;;18.29;50.52;99100.42;233489;1217;138509;-64
2022/06/06 00:54:46;;;;;;;9.10;8.00;;;;;;;18.26;50.51;99097.30;233583;1217;138924;-63
2022/06/06 00:59:53;;;;;;;8.90;7.60;;;;;;;18.21;51.09;99098.10;233607;1217;138673;-62
2022/06/06 01:04:56;;;;;;;9.30;8.10;;;;;;;18.15;51.08;99089.69;233861;1216;138345;-62
2022/06/06 01:09:59;;;;;;;10.20;8.00;;;;;;;18.11;51.19;99088.63;233430;1217;138389;-62
2022/06/06 01:15:10;;;;;;;9.70;7.90;;;;;;;18.06;51.39;99097.34;233416;1217;141695;-64
2022/06/06 01:20:20;;;;;;;9.30;8.40;;;;;;;17.99;51.45;99096.31;233560;1217;138802;-63
2022/06/06 01:25:44;;;;;;;9.30;8.20;;;;;;;17.93;51.74;99087.22;233490;1217;138847;-63
2022/06/06 01:30:56;;;;;;;10.20;8.60;;;;;;;17.91;51.76;99094.91;233615;1217;141446;-61
2022/06/06 01:36:01;;;;;;;9.30;8.30;;;;;;;17.86;51.75;99098.46;233202;1217;138753;-62
2022/06/06 01:41:11;;;;;;;9.40;8.40;;;;;;;17.81;51.97;99099.10;233873;1217;138618;-62
2022/06/06 01:46:22;;;;;;;9.90;8.00;;;;;;;17.72;52.12;99094.62;233563;1217;138762;-64
2022/06/06 01:51:30;;;;;;;10.20;8.60;;;;;;;17.67;52.18;99105.80;233425;1217;138666;-64
2022/06/06 01:56:36;;;;;;;10.10;9.10;;;;;;;17.60;52.62;99100.07;233644;1217;139037;-64
2022/06/06 02:01:39;;;;;;;10.60;9.50;;;;;;;17.59;52.58;99096.56;233568;1216;139075;-64
2022/06/06 02:06:42;;;;;;;9.80;8.20;;;;;;;17.53;52.61;99085.78;233824;1217;138324;-64
2022/06/06 02:11:46;;;;;;;8.70;7.90;;;;;;;17.51;52.87;99082.55;233793;1216;138479;-64
2022/06/06 02:16:52;;;;;;;10.00;8.50;;;;;;;17.47;52.93;99091.52;233560;1217;140515;-63
2022/06/06 02:21:55;;;;;;;10.50;9.20;;;;;;;17.43;53.13;99099.77;233472;1217;139189;-63
2022/06/06 02:26:58;;;;;;;10.70;8.90;;;;;;;17.38;53.39;99093.73;233814;1216;141495;-63
2022/06/06 02:32:01;;;;;;;10.40;8.30;;;;;;;17.33;53.23;99101.55;233713;1217;138600;-63
2022/06/06 02:37:05;;;;;;;10.60;8.70;;;;;;;17.26;53.41;99092.16;233566;1216;138777;-65
2022/06/06 02:42:08;;;;;;;9.70;8.40;;;;;;;17.20;53.51;99082.97;233732;1215;138816;-65
2022/06/06 02:47:12;;;;;;;12.00;9.00;;;;;;;17.16;53.82;99076.86;233874;1216;138096;-65
2022/06/06 02:52:17;;;;;;;9.90;8.80;;;;;;;17.14;53.62;99070.78;233599;1216;138151;-63
2022/06/06 02:57:21;;;;;;;10.30;8.50;;;;;;;17.10;53.66;99074.95;233538;1216;138556;-64
2022/06/06 03:02:24;;;;;;;13.00;9.20;;;;;;;17.04;53.59;99072.27;233648;1216;138688;-64
2022/06/06 03:07:40;;;;;;;11.60;8.70;;;;;;;17.03;54.00;99069.58;233613;1217;138970;-64
2022/06/06 03:13:02;;;;;;;32.50;29.20;;;;;;;17.04;54.09;99064.14;233636;1216;138676;-64
2022/06/06 03:24:16;;;;;;;48.60;40.30;;;;;;;17.18;54.60;99082.09;233914;1217;138816;-63
2022/06/06 03:29:27;;;;;;;12.50;9.90;;;;;;;17.20;54.45;99085.66;233804;1214;139363;-63
2022/06/06 03:34:43;;;;;;;91.00;74.90;;;;;;;17.21;54.40;99083.95;233707;1216;141022;-60
2022/06/06 03:39:57;;;;;;;17.00;13.70;;;;;;;17.31;54.60;99092.45;233641;1216;139549;-60
2022/06/06 03:45:11;;;;;;;10.70;9.60;;;;;;;17.50;55.36;99097.17;233600;1215;139066;-59
2022/06/06 03:50:31;;;;;;;12.70;11.00;;;;;;;17.72;55.05;99110.28;233816;1217;138674;-59
2022/06/06 03:55:46;;;;;;;10.80;9.40;;;;;;;18.30;55.72;99107.16;233774;1217;140251;-61
2022/06/06 04:00:49;;;;;;;19.70;13.30;;;;;;;18.62;54.83;99109.87;233702;1216;140632;-61
2022/06/06 04:05:53;;;;;;;15.70;11.20;;;;;;;18.68;54.08;99105.90;233619;1217;139175;-62
2022/06/06 04:11:11;;;;;;;33.50;23.90;;;;;;;18.91;54.40;99101.09;233651;1217;139187;-60
2022/06/06 04:16:29;;;;;;;22.20;16.30;;;;;;;19.35;54.48;99089.63;233601;1217;138797;-60
2022/06/06 04:21:54;;;;;;;21.80;16.70;;;;;;;19.56;53.73;99072.74;233749;1217;139447;-60
2022/06/06 04:27:30;;;;;;;17.10;13.00;;;;;;;19.81;53.94;99082.25;233480;1217;140715;-60
2022/06/06 04:32:53;;;;;;;;;;;;;;;20.05;53.70;99078.27;233500;1217;139207;-61
2022/06/06 04:38:15;;;;;;;12.30;8.30;;;;;;;19.84;52.13;99072.53;233649;1217;125573;-60
2022/06/06 04:43:27;;;;;;;13.60;9.30;;;;;;;19.49;51.86;99101.19;233601;1215;139076;-60
2022/06/06 04:48:34;;;;;;;11.80;8.90;;;;;;;19.22;51.98;99075.92;233572;1217;139116;-62
2022/06/06 04:53:40;;;;;;;13.50;8.50;;;;;;;19.09;52.21;99083.78;233724;1217;140908;-60
2022/06/06 04:58:47;;;;;;;10.20;8.40;;;;;;;19.05;52.58;99089.92;233571;1217;140926;-61
2022/06/06 05:03:50;;;;;;;11.90;8.60;;;;;;;19.07;52.73;99080.41;233514;1216;138953;-62
2022/06/06 05:09:16;;;;;;;11.20;8.20;;;;;;;19.08;52.74;99079.58;233672;1216;138859;-62
2022/06/06 05:14:19;;;;;;;12.70;7.70;;;;;;;19.13;52.92;99084.73;233540;1217;138979;-61
2022/06/06 05:19:40;;;;;;;10.00;7.90;;;;;;;19.14;53.00;99080.27;233739;1217;139692;-63
2022/06/06 05:25:08;;;;;;;9.40;8.40;;;;;;;19.24;53.21;99079.68;233481;1215;139246;-62
2022/06/06 05:30:27;;;;;;;17.50;10.60;;;;;;;19.35;53.34;99083.60;233626;1217;139189;-61
2022/06/06 05:35:45;;;;;;;13.30;9.60;;;;;;;19.53;53.46;99094.88;233754;1217;138655;-63
2022/06/06 05:41:01;;;;;;;22.50;11.70;;;;;;;19.68;53.37;99092.88;233693;1217;138893;-62
2022/06/06 05:46:24;;;;;;;21.20;12.90;;;;;;;19.84;53.19;99096.30;233556;1217;139462;-62
2022/06/06 05:51:33;;;;;;;18.30;11.80;;;;;;;19.92;52.85;99092.29;233591;1217;138906;-59
2022/06/06 05:56:42;;;;;;;24.30;12.30;;;;;;;20.00;52.76;99094.88;233618;1217;139899;-62
2022/06/06 06:02:19;;;;;;;24.90;13.00;;;;;;;20.07;52.86;99096.67;233785;1216;140570;-63
2022/06/06 06:07:28;;;;;;;25.40;12.30;;;;;;;20.19;52.77;99103.80;233716;1217;138904;-60
2022/06/06 06:12:33;;;;;;;28.10;11.80;;;;;;;20.26;52.74;99096.46;233561;1217;139543;-62
2022/06/06 06:17:39;;;;;;;28.20;11.40;;;;;;;20.36;52.32;99109.46;233816;1217;139302;-61
2022/06/06 06:22:50;;;;;;;24.90;9.60;;;;;;;20.45;52.12;99111.06;233730;1217;139353;-61
2022/06/06 06:28:01;;;;;;;14.40;7.80;;;;;;;20.59;52.14;99107.75;233449;1217;138835;-61
2022/06/06 06:33:41;;;;;;;12.50;6.70;;;;;;;20.72;51.85;99109.40;233678;1217;138614;-62
2022/06/06 06:39:05;;;;;;;13.70;6.00;;;;;;;20.83;51.57;99115.12;233601;1217;138715;-62
2022/06/06 06:44:11;;;;;;;8.20;5.10;;;;;;;20.92;51.35;99115.13;233526;1216;138904;-61
2022/06/06 06:49:26;;;;;;;11.00;5.40;;;;;;;21.09;50.98;99114.82;233405;1217;138811;-61
2022/06/06 06:54:50;;;;;;;12.30;5.00;;;;;;;21.14;50.64;99112.41;233746;1217;140161;-60
2022/06/06 07:00:05;;;;;;;6.30;5.00;;;;;;;21.24;50.28;99103.77;233672;1217;139407;-62
2022/06/06 07:11:04;;;;;;;12.50;5.30;;;;;;;21.49;50.09;99099.68;233694;1217;138501;-62
2022/06/06 07:16:15;;;;;;;11.90;6.20;;;;;;;21.64;49.74;99105.17;233543;1217;138887;-63
2022/06/06 07:21:19;;;;;;;11.00;5.50;;;;;;;21.73;49.26;99102.98;233644;1217;138945;-59
2022/06/06 07:26:25;;;;;;;13.20;6.30;;;;;;;21.75;48.79;99102.51;233536;1217;138880;-60
2022/06/06 07:31:31;;;;;;;18.20;7.50;;;;;;;21.83;48.91;99101.34;233659;1217;139552;-60
2022/06/06 07:36:47;;;;;;;20.20;7.50;;;;;;;21.91;48.94;99098.91;233572;1217;139266;-62
2022/06/06 07:42:02;;;;;;;19.90;8.10;;;;;;;22.01;48.85;99098.70;233743;1217;138557;-61
2022/06/06 07:47:18;;;;;;;14.50;7.10;;;;;;;22.13;48.71;99103.30;233803;1217;139093;-63
2022/06/06 07:52:35;;;;;;;16.50;7.00;;;;;;;22.26;48.43;99101.75;233557;1217;139219;-64
2022/06/06 07:58:08;;;;;;;7.90;5.80;;;;;;;22.44;48.36;99105.33;233669;1217;139942;-61
2022/06/06 08:03:23;;;;;;;18.00;6.90;;;;;;;22.54;48.23;99098.80;233808;1217;138932;-63
2022/06/06 08:08:52;;;;;;;10.80;6.60;;;;;;;22.61;47.78;99100.26;233593;1217;138937;-64
2022/06/06 08:14:17;;;;;;;9.30;4.60;;;;;;;22.77;47.59;99101.66;233445;1217;140111;-64
2022/06/06 08:19:58;;;;;;;9.70;4.70;;;;;;;22.93;46.90;99095.36;233554;1217;138688;-62
2022/06/06 08:25:04;;;;;;;7.20;5.70;;;;;;;23.08;46.74;99093.16;233339;1217;138373;-65
2022/06/06 08:30:09;;;;;;;13.30;5.90;;;;;;;23.11;46.80;99092.10;233464;1217;140109;-63
2022/06/06 08:35:17;;;;;;;10.40;6.60;;;;;;;23.05;47.03;99086.74;233666;1217;140150;-63
2022/06/06 08:40:44;;;;;;;11.50;6.00;;;;;;;23.08;46.98;99088.09;233548;1217;140212;-62
2022/06/06 08:45:57;;;;;;;10.80;6.80;;;;;;;23.10;47.14;99087.23;233492;1217;139320;-61
2022/06/06 08:51:09;;;;;;;7.80;6.00;;;;;;;23.24;47.10;99085.33;233609;1216;139346;-62
2022/06/06 08:56:39;;;;;;;13.60;6.40;;;;;;;23.33;46.92;99081.35;233662;1217;139074;-62
2022/06/06 09:01:51;;;;;;;10.70;6.40;;;;;;;23.50;46.76;99091.21;233464;1217;139039;-62
2022/06/06 09:07:24;;;;;;;9.80;5.80;;;;;;;23.58;46.67;99082.16;233533;1217;139150;-62
2022/06/06 09:13:15;;;;;;;10.70;6.60;;;;;;;23.60;46.41;99083.14;233395;1217;140535;-62
2022/06/06 09:18:47;;;;;;;11.70;6.70;;;;;;;23.66;46.14;99072.77;233490;1217;138900;-62
2022/06/06 09:24:13;;;;;;;8.10;5.80;;;;;;;23.74;45.89;99077.05;233652;1217;139599;-63
2022/06/06 09:29:43;;;;;;;7.10;5.60;;;;;;;23.89;45.77;99069.34;233481;1216;138327;-63
2022/06/06 09:35:00;;;;;;;9.20;5.30;;;;;;;24.13;45.34;99070.10;233552;1217;138903;-63
2022/06/06 09:40:14;;;;;;;8.30;5.00;;;;;;;24.37;44.91;99067.49;233437;1217;139368;-63
2022/06/06 09:45:29;;;;;;;7.40;4.20;;;;;;;24.56;44.24;99056.91;233516;1217;138928;-61
2022/06/06 09:50:51;;;;;;;7.40;4.90;;;;;;;24.69;43.65;99050.73;233347;1217;139354;-62
2022/06/06 10:01:34;;;;;;;10.70;6.00;;;;;;;25.31;43.41;99040.71;233453;1217;139212;-62
2022/06/06 10:07:21;;;;;;;8.90;4.10;;;;;;;25.47;42.86;99035.96;233582;1217;138768;-63
2022/06/06 10:13:02;;;;;;;6.30;3.70;;;;;;;25.64;42.25;99039.44;233629;1217;139745;-62
2022/06/06 10:18:29;;;;;;;4.10;3.30;;;;;;;25.80;41.90;99036.94;233673;1217;138769;-64
2022/06/06 10:23:46;;;;;;;5.70;3.80;;;;;;;26.14;41.61;99038.02;233667;1217;142572;-63
2022/06/06 10:29:25;;;;;;;7.20;3.80;;;;;;;26.32;41.16;99024.35;233578;1217;138889;-62
2022/06/06 10:34:46;;;;;;;8.10;3.50;;;;;;;26.46;40.90;99019.23;233495;1217;138851;-62
2022/06/06 10:40:07;;;;;;;5.00;3.60;;;;;;;26.46;40.61;99019.81;233550;1217;139306;-61
2022/06/06 10:45:13;;;;;;;9.60;4.60;;;;;;;26.66;40.72;99005.81;233700;1217;138378;-61
2022/06/06 10:50:27;;;;;;;4.90;3.50;;;;;;;26.88;40.22;99004.83;233724;1216;140027;-61
2022/06/06 10:55:48;;;;;;;3.70;3.30;;;;;;;27.14;40.22;99002.24;233721;1217;138349;-62
2022/06/06 11:01:38;;;;;;;9.70;4.60;;;;;;;27.30;39.77;98997.25;233503;1217;141835;-60
2022/06/06 11:07:21;;;;;;;5.40;4.00;;;;;;;27.49;39.20;98995.09;233289;1217;138717;-61
2022/06/06 11:12:42;;;;;;;7.40;4.20;;;;;;;27.63;38.90;98984.27;233638;1216;138873;-62
2022/06/06 11:18:13;;;;;;;8.00;3.00;;;;;;;27.74;38.52;98980.56;233722;1217;138593;-61
2022/06/06 11:23:24;;;;;;;7.10;3.30;;;;;;;27.91;38.05;98976.45;233820;1217;139544;-63
2022/06/06 11:28:55;;;;;;;6.40;3.30;;;;;;;28.09;37.94;98973.14;233644;1217;138522;-61
2022/06/06 11:34:08;;;;;;;6.70;3.50;;;;;;;28.37;37.54;98976.69;233564;1217;138736;-61
2022/06/06 11:39:33;;;;;;;3.30;2.80;;;;;;;28.51;37.06;98966.36;233650;1217;138374;-62
2022/06/06 11:44:50;;;;;;;6.80;3.10;;;;;;;28.64;36.59;98969.60;233574;1217;138474;-62
2022/06/06 11:50:15;;;;;;;3.40;2.50;;;;;;;28.78;36.63;98963.80;233509;1217;138433;-60
2022/06/06 11:55:40;;;;;;;5.90;3.20;;;;;;;29.06;36.22;98960.19;233682;1217;138599;-60
2022/06/06 12:01:20;;;;;;;3.60;3.00;;;;;;;29.26;35.68;98959.94;233685;1215;138492;-61
2022/06/06 12:06:47;;;;;;;2.70;2.40;;;;;;;29.39;34.72;98947.77;233623;1217;138647;-61
2022/06/06 12:12:04;;;;;;;3.10;2.80;;;;;;;29.53;34.43;98944.95;233878;1217;138327;-62
2022/06/06 12:17:26;;;;;;;3.70;2.30;;;;;;;29.63;33.75;98946.08;233786;1217;139254;-61
2022/06/06 12:22:47;;;;;;;3.40;2.10;;;;;;;29.71;33.57;98940.31;233662;1217;138819;-59
2022/06/06 12:28:11;;;;;;;3.40;2.20;;;;;;;29.79;32.94;98930.98;233513;1217;138308;-60
2022/06/06 12:33:43;;;;;;;3.50;2.30;;;;;;;29.89;32.72;98924.69;233638;1217;139822;-59
2022/06/06 12:39:02;;;;;;;2.90;2.50;;;;;;;29.99;31.94;98920.02;233751;1215;140591;-59
2022/06/06 12:44:27;;;;;;;4.30;2.20;;;;;;;30.01;32.07;98915.05;233603;1217;139643;-61
2022/06/06 12:49:33;;;;;;;3.60;2.40;;;;;;;30.02;31.93;98900.69;233527;1217;138644;-60
2022/06/06 13:06:23;;;;;;;7.30;2.60;;;;;;;30.43;31.61;98876.47;233625;1217;139927;-60
2022/06/06 13:11:42;;;;;;;3.00;2.50;;;;;;;30.46;30.81;98875.67;233619;1217;138555;-60
2022/06/06 13:17:10;;;;;;;5.60;2.50;;;;;;;30.40;30.06;98873.02;233667;1217;138382;-62
2022/06/06 13:22:25;;;;;;;4.00;2.40;;;;;;;30.38;30.13;98865.75;233623;1217;138942;-61
2022/06/06 13:27:51;;;;;;;2.70;2.40;;;;;;;30.40;30.12;98865.16;233515;1216;138983;-60
2022/06/06 13:33:15;;;;;;;3.60;2.70;;;;;;;30.54;30.26;98855.98;233626;1217;138884;-61
2022/06/06 13:38:38;;;;;;;4.50;2.40;;;;;;;30.69;30.02;98857.86;233557;1217;138988;-61
2022/06/06 13:44:48;;;;;;;4.30;2.40;;;;;;;30.80;30.01;98850.63;233503;1217;138974;-61
2022/06/06 13:50:17;;;;;;;4.00;2.10;;;;;;;30.78;29.30;98857.95;232970;1220;140268;-62
2022/06/06 13:55:27;;;;;;;5.20;2.20;;;;;;;30.77;28.85;98856.73;233631;1217;138818;-60
2022/06/06 14:00:51;;;;;;;6.90;2.40;;;;;;;30.62;28.68;98853.27;233501;1217;139264;-61
2022/06/06 14:06:00;;;;;;;;;;;;;;;30.45;28.78;98851.76;233848;1216;138952;-61
2022/06/06 14:11:10;;;;;;;4.60;2.10;;;;;;;30.34;28.93;98855.17;233747;1217;125340;-62
2022/06/06 14:16:26;;;;;;;5.60;2.00;;;;;;;30.33;29.28;98854.55;233567;1215;139545;-62
2022/06/06 14:21:39;;;;;;;8.90;2.30;;;;;;;30.22;29.18;98857.07;233602;1217;139313;-61
2022/06/06 14:26:55;;;;;;;7.80;2.20;;;;;;;29.96;29.01;98856.36;233579;1217;140010;-60
2022/06/06 14:32:04;;;;;;;7.30;3.70;;;;;;;29.64;28.95;98851.73;233337;1217;139155;-62
2022/06/06 14:37:17;;;;;;;3.20;2.10;;;;;;;29.40;29.02;98855.71;233700;1215;139729;-62
2022/06/06 14:42:34;;;;;;;3.40;2.10;;;;;;;29.31;29.14;98852.54;233504;1217;139339;-61
2022/06/06 14:47:49;;;;;;;2.70;2.20;;;;;;;29.16;29.45;98841.55;233757;1217;138888;-62
2022/06/06 14:52:55;;;;;;;;;;;;;;;28.95;29.30;98831.81;233488;1217;139037;-62
2022/06/06 14:57:58;;;;;;;5.00;2.30;;;;;;;28.76;29.22;98831.59;233580;1217;125237;-62
2022/06/06 15:03:08;;;;;;;4.10;2.00;;;;;;;28.58;29.45;98829.56;233728;1217;138909;-62
2022/06/06 15:08:22;;;;;;;91.00;76.90;;;;;;;28.41;29.48;98825.90;233286;1217;140594;-62
2022/06/06 15:13:25;;;;;;;11.60;9.30;;;;;;;28.29;29.62;98823.30;233337;1217;139727;-61
2022/06/06 15:18:44;;;;;;;5.30;4.70;;;;;;;28.20;29.89;98826.53;233394;1217;138865;-62
2022/06/06 15:23:53;;;;;;;5.60;2.60;;;;;;;28.10;29.96;98824.98;233563;1216;139047;-61
2022/06/06 15:29:23;;;;;;;6.40;2.40;;;;;;;28.02;29.87;98817.93;233473;1217;138940;-62
2022/06/06 15:34:58;;;;;;;6.00;2.80;;;;;;;27.98;29.80;98812.98;233259;1217;139122;-61
2022/06/06 15:40:15;;;;;;;;;;;;;;;27.88;29.78;98808.66;233375;1215;140878;-60
2022/06/06 15:45:17;;;;;;;4.10;1.80;;;;;;;27.78;29.85;98810.27;233627;1217;125643;-61
2022/06/06 15:50:30;;;;;;;3.80;1.90;;;;;;;27.73;29.75;98809.52;233622;1217;139949;-61
2022/06/06 15:55:51;;;;;;;2.60;2.40;;;;;;;27.63;29.85;98805.70;233588;1216;139633;-61
2022/06/06 16:00:56;;;;;;;4.30;2.50;;;;;;;27.55;29.71;98809.31;233535;1217;138745;-61
2022/06/06 16:06:01;;;;;;;5.10;2.70;;;;;;;27.50;29.81;98807.96;233440;1217;138795;-63
2022/06/06 16:11:20;;;;;;;3.10;2.50;;;;;;;27.43;29.80;98808.52;233682;1217;138901;-62
2022/06/06 16:16:49;;;;;;;7.70;2.50;;;;;;;27.33;29.84;98810.91;233158;1217;139228;-60
2022/06/06 16:22:01;;;;;;;10.50;4.80;;;;;;;27.24;30.59;98822.61;233460;1217;139321;-60
2022/06/06 16:27:31;;;;;;;7.60;5.00;;;;;;;27.07;32.98;98831.05;233719;1217;140120;-61
2022/06/06 16:32:47;;;;;;;19.90;13.90;;;;;;;26.89;34.95;98834.14;233534;1217;138618;-59
2022/06/06 16:38:02;;;;;;;7.90;5.40;;;;;;;26.71;36.17;98838.92;233262;1217;138559;-60
2022/06/06 16:49:04;;;;;;;7.80;4.40;;;;;;;26.39;38.18;98852.22;233578;1217;138674;-61
2022/06/06 16:54:19;;;;;;;10.00;4.60;;;;;;;26.23;38.86;98859.60;233485;1217;138794;-62
2022/06/06 16:59:57;;;;;;;9.20;4.30;;;;;;;26.07;39.56;98863.34;233636;1217;139304;-61
2022/06/06 17:05:19;;;;;;;6.90;3.90;;;;;;;25.89;40.17;98868.23;233550;1217;140761;-62
2022/06/06 17:10:30;;;;;;;5.50;3.80;;;;;;;25.75;40.88;98877.26;233365;1217;139054;-62
2022/06/06 17:15:41;;;;;;;4.40;3.80;;;;;;;25.56;40.95;98866.89;233446;1217;138523;-61
2022/06/06 17:20:44;;;;;;;6.60;3.90;;;;;;;25.45;40.86;98878.06;233319;1217;139074;-61
2022/06/06 17:25:49;;;;;;;7.50;3.70;;;;;;;25.34;41.05;98886.20;233562;1217;139059;-61
2022/06/06 17:31:00;;;;;;;7.40;3.40;;;;;;;25.23;41.12;98885.71;233660;1217;138833;-61
2022/06/06 17:36:51;;;;;;;7.90;3.50;;;;;;;25.11;41.72;98882.46;233478;1217;139052;-61
2022/06/06 17:42:09;;;;;;;6.20;4.20;;;;;;;25.08;42.15;98887.05;233510;1217;139974;-62
2022/06/06 17:47:30;;;;;;;5.90;3.30;;;;;;;25.00;42.36;98886.31;233805;1217;138729;-62
2022/06/06 17:53:12;;;;;;;4.60;3.30;;;;;;;24.94;42.63;98887.83;233504;1217;138718;-62
2022/06/06 17:58:28;;;;;;;6.20;3.10;;;;;;;24.89;42.73;98896.63;233376;1217;139112;-61
2022/06/06 18:03:40;;;;;;;;;;;;;;;24.81;42.94;98893.14;233458;1217;138649;-61
2022/06/06 18:09:10;;;;;;;6.50;5.40;;;;;;;24.70;43.00;98890.77;233695;1217;125609;-60
2022/06/06 18:14:30;;;;;;;10.40;5.20;;;;;;;24.66;43.19;98896.34;233515;1216;139220;-61
2022/06/06 18:19:42;;;;;;;8.90;5.10;;;;;;;24.62;43.28;98897.20;233502;1217;138915;-62
2022/06/06 18:24:48;;;;;;;5.20;2.70;;;;;;;24.63;43.46;98901.80;233482;1217;138944;-63
2022/06/06 18:30:00;;;;;;;6.80;3.40;;;;;;;24.59;43.38;98901.11;233632;1217;138626;-64
2022/06/06 18:35:24;;;;;;;7.90;2.90;;;;;;;24.53;43.64;98900.62;233740;1216;139156;-62
2022/06/06 18:40:41;;;;;;;5.80;3.00;;;;;;;24.48;43.70;98897.52;233539;1217;138944;-62
2022/06/06 18:45:51;;;;;;;7.40;3.00;;;;;;;24.48;43.81;98904.94;233531;1217;138785;-61
2022/06/06 18:50:58;;;;;;;16.30;12.80;;;;;;;24.45;43.91;98906.44;233674;1216;139303;-60
2022/06/06 18:56:03;;;;;;;6.30;3.60;;;;;;;24.45;44.05;98907.45;233595;1216;139594;-64
2022/06/06 19:01:18;;;;;;;5.00;3.00;;;;;;;24.42;44.17;98912.59;233492;1216;138508;-61
2022/06/06 19:06:37;;;;;;;27.70;24.70;;;;;;;24.34;44.32;98918.26;233497;1216;140130;-61
2022/06/06 19:11:40;;;;;;;8.40;3.60;;;;;;;24.28;44.59;98916.17;233712;1216;140021;-62
2022/06/06 19:16:48;;;;;;;6.40;3.00;;;;;;;24.27;44.80;98919.11;233536;1216;138859;-62
2022/06/06 19:21:53;;;;;;;14.70;11.80;;;;;;;24.23;44.97;98916.64;233479;1216;139488;-61
2022/06/06 19:27:09;;;;;;;8.30;3.70;;;;;;;24.22;45.04;98916.83;233538;1216;139374;-61
2022/06/06 19:32:18;;;;;;;7.40;3.20;;;;;;;24.20;45.24;98920.10;233565;1216;139786;-60
2022/06/06 19:37:22;;;;;;;6.90;3.30;;;;;;;24.17;45.38;98925.91;233407;1217;138949;-61
2022/06/06 19:42:30;;;;;;;262.60;204.90;;;;;;;24.11;45.58;98927.36;233464;1217;140214;-63
2022/06/06 19:47:35;;;;;;;10.80;6.10;;;;;;;24.09;45.78;98931.77;233546;1217;138855;-62
2022/06/06 19:52:40;;;;;;;10.30;4.00;;;;;;;24.03;45.89;98929.20;233441;1217;139878;-63
2022/06/06 19:57:46;;;;;;;59.40;50.80;;;;;;;24.02;46.15;98932.94;233511;1217;140078;-63
2022/06/06 20:02:59;;;;;;;16.10;8.40;;;;;;;24.02;46.34;98934.16;233582;1216;139367;-62
2022/06/06 20:08:07;;;;;;;7.70;4.10;;;;;;;23.99;46.47;98937.41;233310;1217;138823;-63
2022/06/06 20:13:33;;;;;;;6.50;3.60;;;;;;;23.94;46.60;98930.54;233517;1217;140040;-62
2022/06/06 20:18:44;;;;;;;9.90;6.80;;;;;;;23.91;46.71;98928.46;233440;1217;140336;-61
2022/06/06 20:23:50;;;;;;;7.00;4.20;;;;;;;23.90;46.98;98929.86;233607;1217;139372;-61
2022/06/06 20:29:13;;;;;;;6.10;4.00;;;;;;;23.88;47.12;98932.25;233304;1217;138927;-62
2022/06/06 20:34:38;;;;;;;10.50;6.80;;;;;;;23.90;47.32;98937.09;233390;1217;140172;-61
2022/06/06 20:40:06;;;;;;;7.60;3.80;;;;;;;23.85;47.34;98933.16;233433;1217;139187;-63
2022/06/06 20:45:27;;;;;;;10.80;4.10;;;;;;;23.87;47.48;98937.20;233457;1217;139572;-61
2022/06/06 20:50:39;;;;;;;6.90;4.20;;;;;;;23.82;47.69;98935.20;233440;1217;139163;-61
2022/06/06 20:55:57;;;;;;;6.80;4.00;;;;;;;23.77;47.83;98933.73;233465;1217;138689;-62
2022/06/06 21:01:01;;;;;;;5.20;3.40;;;;;;;23.79;47.96;98935.48;233339;1217;138967;-62
2022/06/06 21:06:06;;;;;;;8.80;3.60;;;;;;;23.79;48.13;98935.90;233546;1217;138920;-62
2022/06/06 21:11:15;;;;;;;7.70;3.50;;;;;;;23.75;48.15;98925.50;233543;1217;139075;-60
2022/06/06 21:16:18;;;;;;;6.30;3.80;;;;;;;23.71;48.25;98921.45;233597;1216;138942;-61
2022/06/06 21:21:24;;;;;;;6.00;3.80;;;;;;;23.70;48.47;98929.76;233455;1217;138781;-61
2022/06/06 21:26:33;;;;;;;10.30;4.20;;;;;;;23.67;48.61;98919.84;233568;1217;138437;-61
2022/06/06 21:31:37;;;;;;;7.90;4.80;;;;;;;23.62;48.76;98913.04;233420;1216;139457;-63
2022/06/06 21:36:40;;;;;;;9.20;4.80;;;;;;;23.64;49.03;98918.49;233770;1217;139266;-63
2022/06/06 21:41:43;;;;;;;9.20;5.30;;;;;;;23.59;49.00;98905.42;233590;1217;138778;-62
2022/06/06 21:46:46;;;;;;;7.90;5.30;;;;;;;23.58;49.18;98898.70;233549;1217;139672;-61
2022/06/06 21:51:50;;;;;;;9.10;4.90;;;;;;;23.59;49.30;98894.34;233549;1216;139492;-61
2022/06/06 21:56:56;;;;;;;14.50;5.40;;;;;;;23.56;49.42;98886.90;233518;1217;141738;-62
2022/06/06 22:02:02;;;;;;;12.10;5.60;;;;;;;23.59;49.46;98887.52;233552;1217;138703;-62
2022/06/06 22:07:06;;;;;;;8.70;5.20;;;;;;;23.55;49.53;98890.00;233356;1217;139239;-61
2022/06/06 22:12:14;;;;;;;8.80;6.20;;;;;;;23.51;49.66;98892.95;233565;1217;139629;-62
2022/06/06 22:17:17;;;;;;;11.30;6.70;;;;;;;23.49;49.79;98890.73;233629;1217;141421;-61
2022/06/06 22:22:20;;;;;;;12.60;6.20;;;;;;;23.50;49.93;98894.56;233405;1217;139036;-62
2022/06/06 22:27:23;;;;;;;11.00;6.60;;;;;;;23.46;50.00;98884.33;233532;1217;140161;-62
2022/06/06 22:32:26;;;;;;;13.20;6.30;;;;;;;23.40;50.15;98879.38;233548;1216;139866;-62
2022/06/06 22:37:29;;;;;;;13.50;6.00;;;;;;;23.38;50.23;98876.38;233756;1217;138895;-60
2022/06/06 22:42:33;;;;;;;9.70;5.80;;;;;;;23.31;50.41;98874.73;233522;1217;140828;-62
2022/06/06 22:47:36;;;;;;;11.90;5.40;;;;;;;23.25;50.64;98882.61;233395;1217;138746;-62
2022/06/06 22:52:39;;;;;;;10.30;5.90;;;;;;;23.18;50.85;98880.92;233346;1217;139368;-62
2022/06/06 22:57:43;;;;;;;9.60;5.30;;;;;;;23.08;50.93;98882.62;233637;1214;139479;-62
2022/06/06 23:02:46;;;;;;;9.10;6.00;;;;;;;23.03;51.14;98886.65;233533;1217;139773;-61
2022/06/06 23:07:49;;;;;;;8.00;5.60;;;;;;;23.02;51.22;98892.59;233418;1217;138657;-62
2022/06/06 23:12:52;;;;;;;11.40;5.80;;;;;;;22.98;51.37;98889.23;233556;1217;139365;-62
2022/06/06 23:17:56;;;;;;;11.10;6.60;;;;;;;22.96;51.42;98897.82;233386;1218;138998;-60
2022/06/06 23:22:59;;;;;;;8.90;6.30;;;;;;;22.91;51.60;98900.34;233463;1217;138914;-59
2022/06/06 23:28:02;;;;;;;9.60;6.30;;;;;;;22.89;51.75;98898.89;233606;1216;143389;-61
2022/06/06 23:33:08;;;;;;;13.00;7.20;;;;;;;22.86;51.87;98895.67;233508;1217;138948;-61
2022/06/06 23:38:16;;;;;;;12.30;7.50;;;;;;;22.85;52.08;98895.16;233627;1217;139435;-61
2022/06/06 23:43:24;;;;;;;12.30;8.20;;;;;;;22.83;52.23;98885.17;233757;1216;138826;-61
2022/06/06 23:48:38;;;;;;;13.10;8.60;;;;;;;22.79;52.42;98889.27;233545;1216;139361;-60
2022/06/06 23:53:46;;;;;;;14.70;8.50;;;;;;;22.73;52.37;98889.21;233603;1217;138955;-61
2022/06/06 23:58:50;;;;;;;13.10;8.90;;;;;;;22.65;52.56;98888.73;233655;1217;139059;-59
